Time;durP1;ratioP1;P1;durP2;ratioP2;P2;SDS_P1;SDS_P2;PMS_P1;PMS_P2;Temp;Humidity;BMP_temperature;BMP_pressure;BME280_temperature;BME280_humidity;BME280_pressure;Samples;Min_cycle;Max_cycle;Signal;HPM_P1;HPM_P2
2023/07/21 00:02:20;;;;;;;2.80;2.60;;;;;;;;;;5013181;28;20191;-77
2023/07/21 00:04:46;;;;;;;3.20;2.90;;;;;;;;;;5049857;28;20228;-77
2023/07/21 00:07:12;;;;;;;3.83;2.60;;;;;;;;;;5048324;28;20624;-77
2023/07/21 00:09:39;;;;;;;3.47;2.70;;;;;;;;;;5048698;28;20206;-77
2023/07/21 00:12:05;;;;;;;3.33;2.97;;;;;;;;;;5051177;28;20516;-77
2023/07/21 00:14:31;;;;;;;3.13;2.83;;;;;;;;;;5032247;28;20217;-77
2023/07/21 00:16:57;;;;;;;2.60;2.40;;;;;;;;;;5031660;28;20236;-76
2023/07/21 00:19:23;;;;;;;2.93;2.63;;;;;;;;;;5047866;28;20182;-77
2023/07/21 00:21:50;;;;;;;3.83;2.80;;;;;;;;;;5013657;28;20799;-77
2023/07/21 00:24:18;;;;;;;3.00;2.70;;;;;;;;;;5027371;28;20223;-77
2023/07/21 00:26:46;;;;;;;6.60;2.77;;;;;;;;;;5049855;28;20200;-76
2023/07/21 00:29:12;;;;;;;3.33;2.50;;;;;;;;;;5032970;28;20197;-77
2023/07/21 00:31:39;;;;;;;2.77;2.57;;;;;;;;;;5012712;28;20182;-77
2023/07/21 00:34:08;;;;;;;2.90;2.70;;;;;;;;;;5012291;28;21816;-77
2023/07/21 00:36:34;;;;;;;2.60;2.40;;;;;;;;;;5010445;28;20243;-77
2023/07/21 00:39:00;;;;;;;2.67;2.37;;;;;;;;;;5030157;28;20185;-77
2023/07/21 00:41:27;;;;;;;2.63;2.40;;;;;;;;;;5010760;28;20177;-76
2023/07/21 00:43:54;;;;;;;3.00;2.80;;;;;;;;;;5028726;28;20209;-77
2023/07/21 00:46:23;;;;;;;4.47;2.40;;;;;;;;;;5027026;28;20892;-77
2023/07/21 00:48:49;;;;;;;3.47;2.70;;;;;;;;;;5011684;28;20229;-76
2023/07/21 00:51:15;;;;;;;3.90;2.50;;;;;;;;;;5027435;28;20186;-77
2023/07/21 00:53:42;;;;;;;2.50;2.30;;;;;;;;;;5028163;28;20189;-77
2023/07/21 00:56:08;;;;;;;3.73;2.70;;;;;;;;;;5028544;28;20197;-76
2023/07/21 00:58:34;;;;;;;3.40;2.60;;;;;;;;;;5027238;28;20700;-77
2023/07/21 01:01:01;;;;;;;3.83;2.63;;;;;;;;;;5028192;28;20197;-77
2023/07/21 01:03:29;;;;;;;2.40;2.20;;;;;;;;;;5027884;28;20228;-77
2023/07/21 01:05:58;;;;;;;3.33;2.67;;;;;;;;;;5047616;28;20201;-77
2023/07/21 01:08:24;;;;;;;2.87;2.67;;;;;;;;;;5028659;28;20182;-76
2023/07/21 01:10:51;;;;;;;2.73;2.50;;;;;;;;;;5031218;28;20177;-77
2023/07/21 01:13:18;;;;;;;2.93;2.50;;;;;;;;;;5047457;28;20178;-77
2023/07/21 01:15:46;;;;;;;3.60;2.50;;;;;;;;;;5029376;28;22053;-77
2023/07/21 01:18:15;;;;;;;2.70;2.50;;;;;;;;;;5029256;28;20598;-77
2023/07/21 01:20:42;;;;;;;2.50;2.30;;;;;;;;;;4996272;28;20192;-77
2023/07/21 01:23:20;;;;;;;2.77;2.30;;;;;;;;;;5014420;28;20263;-77
2023/07/21 01:25:48;;;;;;;2.80;2.60;;;;;;;;;;5032011;28;20676;-77
2023/07/21 01:28:14;;;;;;;3.37;2.57;;;;;;;;;;5012470;28;20182;-78
2023/07/21 01:30:43;;;;;;;3.50;2.50;;;;;;;;;;5027666;28;20273;-77
2023/07/21 01:33:10;;;;;;;2.83;2.43;;;;;;;;;;5033834;28;20177;-77
2023/07/21 01:35:37;;;;;;;2.70;2.50;;;;;;;;;;5047082;28;20246;-78
2023/07/21 01:38:04;;;;;;;3.70;2.60;;;;;;;;;;5027710;28;20208;-77
2023/07/21 01:40:30;;;;;;;3.00;2.60;;;;;;;;;;5027261;28;20192;-77
2023/07/21 01:42:57;;;;;;;2.80;2.60;;;;;;;;;;5012500;28;20213;-78
2023/07/21 01:45:24;;;;;;;3.23;2.60;;;;;;;;;;5028591;28;20263;-77
2023/07/21 01:47:50;;;;;;;2.97;2.63;;;;;;;;;;5012947;28;20269;-77
2023/07/21 01:50:17;;;;;;;3.33;2.20;;;;;;;;;;5012242;28;20320;-77
2023/07/21 01:52:47;;;;;;;2.80;2.50;;;;;;;;;;5031121;28;20214;-77
2023/07/21 01:55:26;;;;;;;2.53;2.33;;;;;;;;;;5029071;28;20272;-77
2023/07/21 01:58:01;;;;;;;2.60;2.40;;;;;;;;;;5011360;28;20186;-77
2023/07/21 02:00:32;;;;;;;2.80;2.50;;;;;;;;;;5025668;28;20221;-76
2023/07/21 02:02:58;;;;;;;3.00;2.60;;;;;;;;;;5029609;28;20178;-77
2023/07/21 02:05:26;;;;;;;2.97;2.67;;;;;;;;;;5046637;28;20224;-77
2023/07/21 02:07:54;;;;;;;2.60;2.37;;;;;;;;;;5008319;28;20178;-78
2023/07/21 02:10:20;;;;;;;2.83;2.60;;;;;;;;;;5028716;28;20244;-77
2023/07/21 02:12:54;;;;;;;2.70;2.50;;;;;;;;;;5029649;28;20238;-77
2023/07/21 02:15:20;;;;;;;2.93;2.63;;;;;;;;;;5028665;28;20292;-76
2023/07/21 02:17:48;;;;;;;2.97;2.27;;;;;;;;;;5035098;28;20178;-77
2023/07/21 02:20:14;;;;;;;2.97;2.60;;;;;;;;;;5049971;28;20182;-77
2023/07/21 02:22:43;;;;;;;4.10;2.53;;;;;;;;;;5022034;28;20182;-76
2023/07/21 02:25:13;;;;;;;2.80;2.60;;;;;;;;;;5015025;28;20209;-77
2023/07/21 02:27:39;;;;;;;4.00;2.70;;;;;;;;;;5016215;28;20281;-76
2023/07/21 02:30:06;;;;;;;2.90;2.60;;;;;;;;;;4996778;28;20181;-76
2023/07/21 02:32:33;;;;;;;2.60;2.40;;;;;;;;;;5015630;28;20374;-77
2023/07/21 02:34:59;;;;;;;2.73;2.53;;;;;;;;;;5031471;28;20269;-77
2023/07/21 02:37:28;;;;;;;2.80;2.60;;;;;;;;;;5047985;28;20182;-76
2023/07/21 02:39:54;;;;;;;2.70;2.50;;;;;;;;;;5034116;28;20285;-76
2023/07/21 02:42:20;;;;;;;2.73;2.53;;;;;;;;;;5047115;28;20190;-76
2023/07/21 02:44:46;;;;;;;4.10;2.63;;;;;;;;;;5014329;28;20206;-76
2023/07/21 02:47:15;;;;;;;4.83;2.83;;;;;;;;;;5043742;28;20170;-77
2023/07/21 02:49:42;;;;;;;2.67;2.47;;;;;;;;;;5038148;28;20285;-76
2023/07/21 02:52:08;;;;;;;2.83;2.60;;;;;;;;;;5037106;28;20213;-76
2023/07/21 02:54:36;;;;;;;3.00;2.70;;;;;;;;;;5031231;28;20202;-77
2023/07/21 02:57:02;;;;;;;3.10;2.80;;;;;;;;;;5035044;28;20664;-76
2023/07/21 02:59:29;;;;;;;3.00;2.80;;;;;;;;;;5019415;28;20186;-76
2023/07/21 03:01:56;;;;;;;3.77;2.67;;;;;;;;;;5016905;28;20192;-76
2023/07/21 03:04:31;;;;;;;3.70;2.60;;;;;;;;;;5016098;28;20305;-77
2023/07/21 03:07:00;;;;;;;3.17;2.60;;;;;;;;;;5016412;28;20639;-76
2023/07/21 03:09:27;;;;;;;2.83;2.50;;;;;;;;;;5018180;28;20254;-76
2023/07/21 03:11:56;;;;;;;8.40;2.90;;;;;;;;;;5031722;28;20817;-77
2023/07/21 03:14:36;;;;;;;3.70;2.67;;;;;;;;;;5032829;28;20213;-76
2023/07/21 03:17:03;;;;;;;3.27;2.97;;;;;;;;;;5031524;28;20182;-76
2023/07/21 03:19:30;;;;;;;2.77;2.57;;;;;;;;;;5030570;28;20186;-76
2023/07/21 03:22:00;;;;;;;3.07;2.70;;;;;;;;;;5030939;28;20217;-76
2023/07/21 03:24:27;;;;;;;3.80;3.50;;;;;;;;;;5028616;28;20223;-76
2023/07/21 03:26:53;;;;;;;4.00;3.00;;;;;;;;;;5028001;28;20189;-76
2023/07/21 03:29:22;;;;;;;3.27;2.97;;;;;;;;;;5016657;28;20182;-77
2023/07/21 03:31:48;;;;;;;3.10;2.80;;;;;;;;;;5034036;28;20184;-76
2023/07/21 03:34:16;;;;;;;5.33;3.13;;;;;;;;;;5033867;28;20213;-76
2023/07/21 03:36:43;;;;;;;2.67;2.43;;;;;;;;;;5015769;28;20189;-77
2023/07/21 03:39:09;;;;;;;3.07;2.77;;;;;;;;;;5016132;28;20264;-77
2023/07/21 03:41:35;;;;;;;3.83;2.90;;;;;;;;;;5014867;28;20193;-77
2023/07/21 03:44:02;;;;;;;3.20;2.90;;;;;;;;;;5032868;28;20267;-77
2023/07/21 03:46:28;;;;;;;3.03;2.73;;;;;;;;;;5032414;28;20190;-77
2023/07/21 03:48:58;;;;;;;3.10;2.90;;;;;;;;;;5037119;28;20185;-76
2023/07/21 03:51:26;;;;;;;3.40;3.10;;;;;;;;;;5019646;28;20251;-76
2023/07/21 03:53:52;;;;;;;4.97;3.53;;;;;;;;;;5037748;28;20200;-77
2023/07/21 03:56:22;;;;;;;4.00;3.27;;;;;;;;;;5015519;28;20202;-77
2023/07/21 03:58:49;;;;;;;3.93;3.60;;;;;;;;;;5021280;28;20197;-76
2023/07/21 04:01:15;;;;;;;4.97;3.80;;;;;;;;;;5049854;28;20228;-76
2023/07/21 04:03:41;;;;;;;4.13;3.70;;;;;;;;;;5035905;28;20335;-76
2023/07/21 04:06:08;;;;;;;4.37;3.97;;;;;;;;;;5032100;28;20277;-77
2023/07/21 04:08:34;;;;;;;4.13;3.40;;;;;;;;;;5026600;28;20594;-77
2023/07/21 04:11:01;;;;;;;4.23;3.83;;;;;;;;;;5016282;28;20182;-77
2023/07/21 04:13:27;;;;;;;3.87;3.50;;;;;;;;;;5031996;28;20193;-77
2023/07/21 04:15:53;;;;;;;3.60;3.30;;;;;;;;;;5014450;28;20248;-76
2023/07/21 04:18:19;;;;;;;3.70;3.40;;;;;;;;;;5034720;28;20192;-77
2023/07/21 04:20:46;;;;;;;5.07;4.07;;;;;;;;;;5014382;28;20196;-76
2023/07/21 04:23:12;;;;;;;5.00;3.80;;;;;;;;;;5031052;28;20190;-76
2023/07/21 04:25:38;;;;;;;4.67;4.20;;;;;;;;;;5029005;28;20202;-76
2023/07/21 04:28:06;;;;;;;5.57;4.43;;;;;;;;;;5015399;28;20550;-76
2023/07/21 04:30:35;;;;;;;6.30;4.20;;;;;;;;;;5019906;28;20278;-76
2023/07/21 04:33:01;;;;;;;5.53;4.10;;;;;;;;;;4998450;28;20213;-76
2023/07/21 04:35:27;;;;;;;4.73;4.17;;;;;;;;;;5028967;28;20221;-77
2023/07/21 04:37:54;;;;;;;4.53;4.13;;;;;;;;;;5012638;28;20250;-77
2023/07/21 04:40:23;;;;;;;5.87;4.33;;;;;;;;;;5037427;28;20193;-77
2023/07/21 04:42:50;;;;;;;4.73;4.30;;;;;;;;;;5015546;28;20558;-77
2023/07/21 04:45:17;;;;;;;4.93;4.07;;;;;;;;;;5047526;22;20237;-78
2023/07/21 04:47:57;;;;;;;4.70;4.10;;;;;;;;;;5012457;28;20183;-78
2023/07/21 04:50:25;;;;;;;4.57;4.17;;;;;;;;;;5013902;28;20671;-79
2023/07/21 04:52:51;;;;;;;6.67;4.33;;;;;;;;;;5027084;28;20653;-79
2023/07/21 04:55:18;;;;;;;5.53;4.50;;;;;;;;;;5010752;28;20260;-80
2023/07/21 04:57:44;;;;;;;7.73;4.63;;;;;;;;;;5011051;28;20281;-78
2023/07/21 05:00:13;;;;;;;5.23;4.13;;;;;;;;;;5009805;28;20193;-80
2023/07/21 05:02:40;;;;;;;4.43;4.00;;;;;;;;;;5024714;28;20197;-81
2023/07/21 05:05:07;;;;;;;4.30;3.97;;;;;;;;;;4988303;28;20297;-78
2023/07/21 05:07:38;;;;;;;4.73;4.27;;;;;;;;;;5010331;28;20672;-78
2023/07/21 05:10:05;;;;;;;5.17;4.20;;;;;;;;;;5008345;28;20187;-77
2023/07/21 05:12:32;;;;;;;4.83;4.33;;;;;;;;;;5007398;28;20265;-79
2023/07/21 05:15:14;;;;;;;5.83;4.23;;;;;;;;;;5011377;28;20214;-78
2023/07/21 05:17:49;;;;;;;6.77;4.67;;;;;;;;;;5024916;28;20204;-76
2023/07/21 05:20:40;;;;;;;5.97;4.50;;;;;;;;;;5004040;28;20618;-77
2023/07/21 05:23:16;;;;;;;6.47;4.50;;;;;;;;;;5007210;28;20348;-76
2023/07/21 05:25:57;;;;;;;5.67;4.33;;;;;;;;;;5009650;28;20202;-77
2023/07/21 05:28:24;;;;;;;5.37;4.47;;;;;;;;;;5006404;28;20182;-78
2023/07/21 05:30:50;;;;;;;4.97;4.30;;;;;;;;;;5009692;28;20216;-79
2023/07/21 05:33:20;;;;;;;5.67;4.43;;;;;;;;;;5006988;28;20186;-74
2023/07/21 05:35:47;;;;;;;5.67;4.37;;;;;;;;;;5011038;28;20213;-74
2023/07/21 05:38:21;;;;;;;4.00;3.70;;;;;;;;;;5010243;28;20205;-76
2023/07/21 05:40:56;;;;;;;4.77;4.07;;;;;;;;;;5012072;28;20187;-75
2023/07/21 05:43:24;;;;;;;5.83;4.20;;;;;;;;;;5011665;28;20241;-76
2023/07/21 05:45:50;;;;;;;5.40;4.70;;;;;;;;;;5010848;28;20214;-76
2023/07/21 05:48:17;;;;;;;5.43;4.40;;;;;;;;;;5011450;28;20662;-75
2023/07/21 05:50:46;;;;;;;4.33;3.93;;;;;;;;;;5010758;28;20189;-74
2023/07/21 05:53:14;;;;;;;4.97;4.13;;;;;;;;;;5011620;28;20179;-76
2023/07/21 05:55:44;;;;;;;6.10;4.53;;;;;;;;;;5008914;28;20207;-76
2023/07/21 05:58:18;;;;;;;6.23;4.60;;;;;;;;;;5010748;28;20178;-74
2023/07/21 06:00:45;;;;;;;5.63;4.13;;;;;;;;;;5011280;28;20205;-74
2023/07/21 06:03:12;;;;;;;6.33;4.10;;;;;;;;;;5009328;28;20257;-75
2023/07/21 06:05:38;;;;;;;4.40;4.00;;;;;;;;;;5026218;28;20206;-74
2023/07/21 06:08:24;;;;;;;5.50;4.30;;;;;;;;;;5011390;28;20527;-74
2023/07/21 06:10:57;;;;;;;5.07;3.80;;;;;;;;;;5024797;28;20535;-77
2023/07/21 06:13:36;;;;;;;5.43;4.00;;;;;;;;;;5013465;28;20186;-77
2023/07/21 06:16:22;;;;;;;5.70;4.10;;;;;;;;;;5028258;28;20668;-80
2023/07/21 06:18:50;;;;;;;3.80;3.50;;;;;;;;;;5021588;28;20187;-77
2023/07/21 06:21:16;;;;;;;5.90;4.00;;;;;;;;;;5008531;28;20753;-77
2023/07/21 06:23:44;;;;;;;5.43;3.90;;;;;;;;;;5005197;28;20210;-78
2023/07/21 06:26:10;;;;;;;4.30;3.90;;;;;;;;;;5005601;28;20206;-78
2023/07/21 06:28:37;;;;;;;3.93;3.53;;;;;;;;;;5000189;28;20188;-78
2023/07/21 06:31:03;;;;;;;5.23;3.20;;;;;;;;;;5003831;28;20186;-78
2023/07/21 06:33:46;;;;;;;3.60;3.30;;;;;;;;;;5012978;28;20217;-78
2023/07/21 06:36:31;;;;;;;4.23;3.50;;;;;;;;;;5020164;28;20191;-78
2023/07/21 06:39:23;;;;;;;3.90;3.50;;;;;;;;;;4988693;28;20206;-78
2023/07/21 06:42:16;;;;;;;4.37;3.30;;;;;;;;;;5019195;28;20191;-78
2023/07/21 06:44:49;;;;;;;4.10;3.20;;;;;;;;;;5022547;28;20301;-79
2023/07/21 06:47:48;;;;;;;3.60;3.23;;;;;;;;;;4995826;28;20209;-78
2023/07/21 06:50:33;;;;;;;3.20;2.90;;;;;;;;;;5008299;28;20182;-79
2023/07/21 06:53:04;;;;;;;3.37;2.77;;;;;;;;;;5006550;28;20186;-78
2023/07/21 06:55:31;;;;;;;4.47;3.10;;;;;;;;;;4999617;28;20656;-79
2023/07/21 06:57:58;;;;;;;4.27;3.47;;;;;;;;;;5019378;28;20179;-78
2023/07/21 07:00:24;;;;;;;3.93;3.27;;;;;;;;;;4998347;28;20192;-79
2023/07/21 07:02:50;;;;;;;4.63;2.80;;;;;;;;;;5024038;28;20188;-78
2023/07/21 07:05:17;;;;;;;6.67;3.60;;;;;;;;;;5002814;28;20219;-78
2023/07/21 07:07:44;;;;;;;4.33;3.10;;;;;;;;;;5005535;28;20662;-79
2023/07/21 07:10:10;;;;;;;5.37;3.43;;;;;;;;;;5020725;28;20179;-78
2023/07/21 07:12:38;;;;;;;4.23;3.00;;;;;;;;;;5006740;28;20330;-78
2023/07/21 07:15:05;;;;;;;3.83;3.17;;;;;;;;;;5020086;28;20203;-78
2023/07/21 07:17:31;;;;;;;3.50;3.20;;;;;;;;;;4991831;28;20229;-79
2023/07/21 07:19:57;;;;;;;4.50;3.07;;;;;;;;;;5023033;28;20189;-79
2023/07/21 07:22:23;;;;;;;7.07;3.40;;;;;;;;;;5026880;28;20202;-79
2023/07/21 07:24:49;;;;;;;4.57;2.90;;;;;;;;;;5024896;28;21915;-78
2023/07/21 07:27:16;;;;;;;3.90;3.23;;;;;;;;;;5010489;28;20190;-78
2023/07/21 07:29:42;;;;;;;3.83;3.53;;;;;;;;;;5004093;28;20266;-78
2023/07/21 07:32:08;;;;;;;4.67;3.90;;;;;;;;;;5020329;28;20802;-78
2023/07/21 07:34:35;;;;;;;4.83;3.80;;;;;;;;;;5025429;28;20712;-79
2023/07/21 07:37:01;;;;;;;4.53;3.87;;;;;;;;;;4993332;28;20529;-78
2023/07/21 07:39:27;;;;;;;5.53;3.60;;;;;;;;;;5025671;28;20183;-77
2023/07/21 07:41:53;;;;;;;4.70;3.60;;;;;;;;;;5008355;28;20559;-78
2023/07/21 07:44:20;;;;;;;3.80;3.50;;;;;;;;;;5026317;28;20289;-78
2023/07/21 07:46:46;;;;;;;6.47;3.53;;;;;;;;;;5009868;28;20193;-79
2023/07/21 07:49:12;;;;;;;4.07;3.73;;;;;;;;;;5030673;28;20650;-80
2023/07/21 07:51:38;;;;;;;4.13;3.73;;;;;;;;;;5027877;28;20186;-80
2023/07/21 07:54:08;;;;;;;5.07;4.00;;;;;;;;;;5011298;28;20245;-79
2023/07/21 07:56:34;;;;;;;5.10;4.00;;;;;;;;;;5013147;28;20197;-77
2023/07/21 07:59:00;;;;;;;4.10;3.70;;;;;;;;;;5012853;28;20186;-79
2023/07/21 08:01:26;;;;;;;5.40;3.67;;;;;;;;;;5022101;28;20271;-79
2023/07/21 08:03:53;;;;;;;4.10;3.70;;;;;;;;;;5029751;28;20683;-79
2023/07/21 08:06:22;;;;;;;6.57;4.53;;;;;;;;;;5001331;28;20230;-78
2023/07/21 08:08:48;;;;;;;5.90;4.23;;;;;;;;;;5006311;28;20175;-77
2023/07/21 08:11:14;;;;;;;5.80;4.13;;;;;;;;;;5008848;28;20257;-78
2023/07/21 08:13:40;;;;;;;4.90;4.40;;;;;;;;;;5005463;28;20248;-77
2023/07/21 08:16:11;;;;;;;6.43;4.40;;;;;;;;;;5006112;28;20214;-79
2023/07/21 08:18:37;;;;;;;6.33;4.33;;;;;;;;;;5023785;28;20205;-79
2023/07/21 08:21:20;;;;;;;5.40;4.20;;;;;;;;;;5009371;28;20182;-78
2023/07/21 08:23:46;;;;;;;7.40;4.20;;;;;;;;;;5007339;28;20190;-78
2023/07/21 08:26:12;;;;;;;6.07;4.10;;;;;;;;;;4999850;28;20199;-79
2023/07/21 08:28:39;;;;;;;5.07;4.30;;;;;;;;;;5020523;28;20191;-78
2023/07/21 08:31:05;;;;;;;4.93;4.03;;;;;;;;;;5020906;28;20217;-79
2023/07/21 08:33:31;;;;;;;7.17;4.20;;;;;;;;;;5007180;28;20201;-79
2023/07/21 08:35:57;;;;;;;5.70;4.77;;;;;;;;;;5024175;28;20203;-79
2023/07/21 08:38:23;;;;;;;5.10;4.60;;;;;;;;;;4998927;28;20183;-78
2023/07/21 08:40:50;;;;;;;4.90;4.43;;;;;;;;;;5021789;28;20186;-78
2023/07/21 08:43:17;;;;;;;5.17;4.10;;;;;;;;;;5000050;28;20527;-78
2023/07/21 08:45:44;;;;;;;4.57;4.00;;;;;;;;;;5025029;28;20787;-78
2023/07/21 08:48:10;;;;;;;4.80;4.37;;;;;;;;;;5021399;28;20183;-79
2023/07/21 08:50:38;;;;;;;4.50;4.10;;;;;;;;;;5018940;28;20574;-78
2023/07/21 08:53:04;;;;;;;6.13;4.27;;;;;;;;;;5023289;28;20638;-78
2023/07/21 08:55:31;;;;;;;6.93;4.83;;;;;;;;;;5023437;28;20762;-78
2023/07/21 08:58:00;;;;;;;5.43;4.60;;;;;;;;;;5022814;28;20186;-78
2023/07/21 09:00:27;;;;;;;4.67;4.27;;;;;;;;;;5020082;28;20188;-79
2023/07/21 09:02:59;;;;;;;6.67;4.83;;;;;;;;;;5024158;28;20182;-78
2023/07/21 09:05:25;;;;;;;6.30;4.50;;;;;;;;;;5004282;28;20217;-78
2023/07/21 09:07:52;;;;;;;5.60;4.23;;;;;;;;;;5021829;28;20593;-77
2023/07/21 09:10:31;;;;;;;4.50;4.03;;;;;;;;;;5019634;28;20182;-78
2023/07/21 09:12:57;;;;;;;4.10;3.70;;;;;;;;;;5021649;28;20220;-77
2023/07/21 09:15:23;;;;;;;4.90;3.57;;;;;;;;;;5002652;28;20215;-78
2023/07/21 09:17:50;;;;;;;3.93;3.20;;;;;;;;;;5021906;28;20664;-79
2023/07/21 09:20:17;;;;;;;4.70;3.60;;;;;;;;;;5026511;28;20720;-78
2023/07/21 09:22:46;;;;;;;3.60;3.30;;;;;;;;;;5013454;28;20646;-78
2023/07/21 09:25:18;;;;;;;5.13;3.20;;;;;;;;;;5020934;28;20218;-78
2023/07/21 09:27:52;;;;;;;3.53;3.20;;;;;;;;;;5024400;28;20424;-78
2023/07/21 09:30:19;;;;;;;5.17;3.40;;;;;;;;;;5013457;28;20226;-78
2023/07/21 09:32:45;;;;;;;5.53;3.40;;;;;;;;;;5020981;28;20741;-81
2023/07/21 09:35:11;;;;;;;4.93;3.43;;;;;;;;;;5019553;28;20216;-79
2023/07/21 09:37:38;;;;;;;3.37;3.07;;;;;;;;;;5015882;28;20486;-78
2023/07/21 09:40:06;;;;;;;3.30;2.93;;;;;;;;;;5003874;28;20186;-80
2023/07/21 09:42:33;;;;;;;5.97;3.57;;;;;;;;;;5019041;28;20191;-78
2023/07/21 09:44:59;;;;;;;4.23;3.23;;;;;;;;;;5003897;28;20216;-78
2023/07/21 09:47:26;;;;;;;4.43;3.87;;;;;;;;;;5017787;28;20964;-78
2023/07/21 09:49:57;;;;;;;3.57;3.27;;;;;;;;;;5028037;28;21097;-79
2023/07/21 09:52:25;;;;;;;3.93;3.50;;;;;;;;;;5020167;28;20248;-78
2023/07/21 09:55:13;;;;;;;3.57;3.27;;;;;;;;;;5003808;28;20688;-78
2023/07/21 09:57:41;;;;;;;3.90;3.20;;;;;;;;;;5027851;28;20682;-80
2023/07/21 10:00:13;;;;;;;5.10;3.30;;;;;;;;;;5025370;28;20555;-78
2023/07/21 10:02:41;;;;;;;3.17;2.87;;;;;;;;;;5007606;28;20849;-79
2023/07/21 10:05:09;;;;;;;3.43;3.13;;;;;;;;;;5024013;28;20227;-78
2023/07/21 10:07:36;;;;;;;5.43;3.20;;;;;;;;;;5025845;28;20182;-79
2023/07/21 10:10:05;;;;;;;3.33;3.03;;;;;;;;;;5028662;28;20183;-78
2023/07/21 10:12:51;;;;;;;6.70;3.20;;;;;;;;;;5027357;28;20217;-78
2023/07/21 10:15:19;;;;;;;3.80;3.40;;;;;;;;;;5007757;28;20206;-78
2023/07/21 10:17:55;;;;;;;3.27;2.93;;;;;;;;;;5027086;28;20182;-79
2023/07/21 10:20:22;;;;;;;3.63;3.30;;;;;;;;;;5025035;28;20621;-78
2023/07/21 10:22:55;;;;;;;5.73;3.47;;;;;;;;;;5027677;28;20233;-78
2023/07/21 10:25:24;;;;;;;3.77;2.83;;;;;;;;;;5025641;28;20592;-79
2023/07/21 10:28:17;;;;;;;4.60;2.80;;;;;;;;;;5024241;28;20199;-78
2023/07/21 10:30:43;;;;;;;5.23;3.17;;;;;;;;;;5004802;28;20249;-79
2023/07/21 10:33:13;;;;;;;4.23;3.20;;;;;;;;;;5020708;28;20766;-79
2023/07/21 10:35:39;;;;;;;6.17;2.80;;;;;;;;;;5021342;28;20202;-79
2023/07/21 10:38:12;;;;;;;4.80;2.73;;;;;;;;;;5021728;28;20178;-79
2023/07/21 10:40:38;;;;;;;5.70;3.03;;;;;;;;;;5024512;28;20201;-78
2023/07/21 10:43:04;;;;;;;4.23;3.00;;;;;;;;;;5007357;28;20188;-78
2023/07/21 10:45:30;;;;;;;5.30;2.90;;;;;;;;;;5057641;23;20222;-80
2023/07/21 10:47:56;;;;;;;4.60;3.10;;;;;;;;;;5031493;28;20261;-79
2023/07/21 10:50:23;;;;;;;3.13;2.80;;;;;;;;;;5032628;28;20181;-78
2023/07/21 10:52:53;;;;;;;4.73;3.10;;;;;;;;;;5033248;28;20178;-78
2023/07/21 10:55:19;;;;;;;3.33;2.67;;;;;;;;;;5015750;28;20590;-78
2023/07/21 10:57:46;;;;;;;2.90;2.67;;;;;;;;;;5049856;28;20545;-78
2023/07/21 11:00:13;;;;;;;3.23;2.93;;;;;;;;;;5031623;28;20605;-79
2023/07/21 11:02:39;;;;;;;3.70;2.60;;;;;;;;;;5009637;28;20224;-80
2023/07/21 11:05:05;;;;;;;2.90;2.70;;;;;;;;;;5021181;28;20242;-79
2023/07/21 11:07:31;;;;;;;5.30;2.60;;;;;;;;;;5046370;28;20197;-81
2023/07/21 11:10:01;;;;;;;3.47;2.43;;;;;;;;;;5022621;28;20197;-79
2023/07/21 11:12:28;;;;;;;3.73;2.60;;;;;;;;;;5013291;28;20178;-79
2023/07/21 11:14:55;;;;;;;4.73;2.60;;;;;;;;;;5013663;28;20568;-78
2023/07/21 11:17:21;;;;;;;3.23;2.87;;;;;;;;;;5045741;28;20182;-78
2023/07/21 11:19:47;;;;;;;6.37;2.77;;;;;;;;;;5027701;28;20244;-78
2023/07/21 11:22:14;;;;;;;4.33;2.53;;;;;;;;;;5048206;28;20197;-79
2023/07/21 11:24:40;;;;;;;4.37;2.43;;;;;;;;;;5029114;28;20666;-79
2023/07/21 11:27:09;;;;;;;3.17;1.93;;;;;;;;;;5011398;28;20317;-78
2023/07/21 11:29:36;;;;;;;3.40;2.10;;;;;;;;;;5046508;28;20295;-79
2023/07/21 11:32:15;;;;;;;3.27;2.20;;;;;;;;;;5048082;28;20178;-79
2023/07/21 11:34:41;;;;;;;2.97;1.83;;;;;;;;;;5025927;28;20240;-81
2023/07/21 11:37:09;;;;;;;3.03;1.90;;;;;;;;;;5015105;28;20718;-78
2023/07/21 11:39:35;;;;;;;3.80;2.30;;;;;;;;;;5031886;28;20256;-80
2023/07/21 11:42:01;;;;;;;3.73;2.10;;;;;;;;;;5030739;28;20692;-77
2023/07/21 11:44:31;;;;;;;2.60;1.90;;;;;;;;;;5029338;28;20237;-77
2023/07/21 11:47:00;;;;;;;1.90;1.70;;;;;;;;;;5045242;28;20269;-77
2023/07/21 11:49:28;;;;;;;2.47;1.80;;;;;;;;;;5016365;28;20266;-77
2023/07/21 11:51:54;;;;;;;2.43;1.80;;;;;;;;;;5015062;28;20572;-81
2023/07/21 11:54:22;;;;;;;4.20;1.90;;;;;;;;;;5003279;28;20562;-79
2023/07/21 11:56:48;;;;;;;3.27;1.63;;;;;;;;;;5012465;28;20190;-79
2023/07/21 11:59:14;;;;;;;2.30;1.70;;;;;;;;;;5018639;28;20257;-79
2023/07/21 12:01:40;;;;;;;2.10;1.90;;;;;;;;;;5004550;28;20185;-79
2023/07/21 12:04:08;;;;;;;3.60;2.00;;;;;;;;;;5020798;28;20225;-79
2023/07/21 12:06:34;;;;;;;3.50;2.30;;;;;;;;;;5016598;28;20202;-79
2023/07/21 12:09:00;;;;;;;2.97;1.63;;;;;;;;;;5003102;28;20183;-79
2023/07/21 12:11:27;;;;;;;2.63;1.87;;;;;;;;;;5013535;28;20190;-79
2023/07/21 12:13:53;;;;;;;2.50;1.93;;;;;;;;;;5018637;28;20182;-79
2023/07/21 12:16:22;;;;;;;1.83;1.63;;;;;;;;;;5016083;28;20213;-79
2023/07/21 12:18:48;;;;;;;4.53;1.80;;;;;;;;;;5000226;28;20188;-79
2023/07/21 12:21:17;;;;;;;2.00;1.80;;;;;;;;;;4999696;28;20186;-80
2023/07/21 12:23:43;;;;;;;2.57;2.00;;;;;;;;;;5031067;28;20203;-80
2023/07/21 12:26:10;;;;;;;4.00;1.80;;;;;;;;;;5019769;28;20220;-80
2023/07/21 12:28:36;;;;;;;5.33;1.87;;;;;;;;;;5019154;28;20294;-80
2023/07/21 12:31:02;;;;;;;2.47;1.70;;;;;;;;;;5043374;28;20174;-80
2023/07/21 12:33:29;;;;;;;2.80;1.90;;;;;;;;;;5010759;28;20266;-80
2023/07/21 12:35:55;;;;;;;2.70;1.80;;;;;;;;;;5025102;28;20667;-80
2023/07/21 12:38:21;;;;;;;1.87;1.73;;;;;;;;;;5006419;28;21807;-80
2023/07/21 12:40:47;;;;;;;2.00;1.80;;;;;;;;;;5019096;28;20183;-80
2023/07/21 12:43:13;;;;;;;1.73;1.60;;;;;;;;;;5003794;28;20174;-80
2023/07/21 12:45:40;;;;;;;1.90;1.70;;;;;;;;;;5049530;28;20225;-80
2023/07/21 12:48:07;;;;;;;2.20;1.80;;;;;;;;;;5033692;28;20184;-80
2023/07/21 12:50:33;;;;;;;2.07;1.57;;;;;;;;;;5002664;28;20226;-80
2023/07/21 12:52:59;;;;;;;2.40;1.73;;;;;;;;;;5034310;28;20221;-80
2023/07/21 12:55:26;;;;;;;1.93;1.63;;;;;;;;;;5025262;28;20696;-80
2023/07/21 12:57:52;;;;;;;1.90;1.60;;;;;;;;;;5000986;28;20186;-80
2023/07/21 13:00:19;;;;;;;5.80;1.90;;;;;;;;;;5021066;28;20702;-80
2023/07/21 13:02:45;;;;;;;4.27;1.70;;;;;;;;;;5032820;28;20213;-79
2023/07/21 13:05:11;;;;;;;2.23;1.67;;;;;;;;;;5003660;28;20214;-80
2023/07/21 13:07:39;;;;;;;2.20;1.70;;;;;;;;;;5005920;28;20194;-80
2023/07/21 13:10:05;;;;;;;2.73;1.90;;;;;;;;;;5024286;28;20224;-80
2023/07/21 13:12:32;;;;;;;2.40;1.70;;;;;;;;;;5024423;28;20181;-80
2023/07/21 13:14:58;;;;;;;7.33;1.70;;;;;;;;;;5039600;28;20213;-80
2023/07/21 13:17:24;;;;;;;2.07;1.80;;;;;;;;;;5021514;28;20279;-79
2023/07/21 13:19:50;;;;;;;3.03;1.80;;;;;;;;;;5006818;28;20219;-79
2023/07/21 13:22:16;;;;;;;1.70;1.57;;;;;;;;;;5002086;28;20633;-79
2023/07/21 13:24:42;;;;;;;2.97;1.93;;;;;;;;;;5003639;28;20233;-80
2023/07/21 13:27:08;;;;;;;2.30;1.50;;;;;;;;;;5022692;28;20197;-80
2023/07/21 13:29:35;;;;;;;2.83;1.73;;;;;;;;;;5020850;28;20660;-80
2023/07/21 13:32:01;;;;;;;2.23;1.77;;;;;;;;;;5020233;28;20676;-80
2023/07/21 13:34:27;;;;;;;2.27;1.83;;;;;;;;;;5056357;28;20391;-79
2023/07/21 13:36:53;;;;;;;3.50;1.67;;;;;;;;;;5037471;28;20182;-80
2023/07/21 13:39:20;;;;;;;2.60;1.87;;;;;;;;;;5003884;28;20685;-79
2023/07/21 13:41:47;;;;;;;2.70;1.97;;;;;;;;;;5017599;28;20691;-80
2023/07/21 13:44:17;;;;;;;3.13;1.90;;;;;;;;;;5030337;28;20723;-80
2023/07/21 13:46:44;;;;;;;2.10;1.90;;;;;;;;;;4999902;28;20576;-80
2023/07/21 13:49:10;;;;;;;2.57;1.83;;;;;;;;;;4992003;28;20198;-80
2023/07/21 13:51:36;;;;;;;3.00;2.10;;;;;;;;;;5014793;28;20181;-80
2023/07/21 13:54:02;;;;;;;2.97;2.17;;;;;;;;;;5023375;28;20235;-80
2023/07/21 13:56:28;;;;;;;1.97;1.80;;;;;;;;;;5034893;28;20256;-80
2023/07/21 13:58:55;;;;;;;2.90;2.17;;;;;;;;;;5016355;28;20658;-80
2023/07/21 14:01:21;;;;;;;3.83;2.00;;;;;;;;;;5034624;28;20178;-80
2023/07/21 14:03:47;;;;;;;2.30;2.10;;;;;;;;;;5023159;28;20301;-80
2023/07/21 14:06:15;;;;;;;7.17;2.30;;;;;;;;;;5020682;28;20760;-80
2023/07/21 14:08:41;;;;;;;2.17;1.97;;;;;;;;;;5018655;28;20254;-82
2023/07/21 14:11:08;;;;;;;2.20;2.00;;;;;;;;;;5001001;28;20182;-80
2023/07/21 14:13:35;;;;;;;3.10;2.17;;;;;;;;;;5007378;28;20284;-81
2023/07/21 14:16:02;;;;;;;2.67;2.03;;;;;;;;;;5005116;28;20207;-81
2023/07/21 14:18:28;;;;;;;2.63;2.00;;;;;;;;;;5003601;28;20210;-78
2023/07/21 14:20:54;;;;;;;2.40;2.20;;;;;;;;;;5044636;28;20178;-77
2023/07/21 14:23:21;;;;;;;2.97;2.20;;;;;;;;;;5009812;28;20194;-77
2023/07/21 14:25:47;;;;;;;2.20;2.00;;;;;;;;;;5027709;28;20205;-77
2023/07/21 14:28:13;;;;;;;2.67;2.30;;;;;;;;;;5029489;28;20603;-77
2023/07/21 14:30:39;;;;;;;3.43;3.10;;;;;;;;;;5026605;28;20187;-77
2023/07/21 14:33:05;;;;;;;3.77;3.10;;;;;;;;;;5029476;28;20268;-77
2023/07/21 14:35:31;;;;;;;3.30;3.00;;;;;;;;;;5013385;28;20224;-78
2023/07/21 14:37:57;;;;;;;2.97;2.40;;;;;;;;;;5046915;28;20726;-77
2023/07/21 14:40:23;;;;;;;2.57;1.90;;;;;;;;;;5032124;28;20662;-77
2023/07/21 14:42:50;;;;;;;2.57;2.00;;;;;;;;;;5031151;28;20185;-77
2023/07/21 14:45:16;;;;;;;2.10;1.90;;;;;;;;;;4997908;28;20216;-77
2023/07/21 14:47:42;;;;;;;3.37;2.70;;;;;;;;;;5013354;28;20171;-77
2023/07/21 14:50:09;;;;;;;3.67;2.40;;;;;;;;;;5030960;28;20776;-77